createdAt,value
2022-10-05T00:00:04.188Z,99.90
2022-10-05T00:05:17.776Z,99.90
2022-10-05T00:10:22.769Z,99.90
2022-10-05T00:15:26.069Z,99.90
2022-10-05T00:20:29.412Z,99.90
2022-10-05T00:25:34.399Z,99.90
2022-10-05T00:30:37.937Z,99.90
2022-10-05T00:35:41.251Z,99.90
2022-10-05T00:41:06.058Z,99.90
2022-10-05T00:46:15.719Z,99.90
2022-10-05T00:51:26.210Z,99.90
2022-10-05T00:56:44.395Z,99.90
2022-10-05T01:01:56.920Z,99.90
2022-10-05T01:07:11.187Z,99.90
2022-10-05T01:12:22.705Z,99.90
2022-10-05T01:17:33.804Z,99.90
2022-10-05T01:22:53.095Z,99.90
2022-10-05T01:28:04.300Z,99.90
2022-10-05T01:33:17.582Z,99.90
2022-10-05T01:38:31.106Z,99.90
2022-10-05T01:43:44.156Z,99.90
2022-10-05T01:49:00.939Z,99.90
2022-10-05T01:54:11.685Z,99.90
2022-10-05T01:59:30.081Z,99.90
2022-10-05T02:05:01.093Z,99.90
2022-10-05T02:10:06.066Z,99.90
2022-10-05T02:15:16.086Z,99.90
2022-10-05T02:20:26.048Z,99.90
2022-10-05T02:25:32.405Z,99.90
2022-10-05T02:30:44.097Z,99.90
2022-10-05T02:35:48.114Z,99.90
2022-10-05T02:40:59.621Z,99.90
2022-10-05T02:46:13.880Z,99.90
2022-10-05T02:51:22.625Z,99.90
2022-10-05T02:56:34.492Z,99.90
2022-10-05T03:01:45.554Z,99.90
2022-10-05T03:06:56.385Z,99.90
2022-10-05T03:12:11.174Z,99.90
2022-10-05T03:17:20.329Z,99.90
2022-10-05T03:22:38.858Z,99.90
2022-10-05T03:27:48.583Z,99.90
2022-10-05T03:33:04.214Z,99.90
2022-10-05T03:38:13.995Z,99.90
2022-10-05T03:43:36.748Z,99.90
2022-10-05T03:48:49.758Z,99.90
2022-10-05T03:59:09.301Z,99.90
2022-10-05T04:04:22.275Z,99.90
2022-10-05T04:09:31.069Z,99.90
2022-10-05T04:14:39.864Z,99.90
2022-10-05T04:19:52.292Z,99.90
2022-10-05T04:30:09.277Z,99.90
2022-10-05T04:40:40.353Z,99.90
2022-10-05T04:46:06.678Z,99.90
2022-10-05T04:51:27.438Z,99.90
2022-10-05T04:56:37.448Z,99.90
2022-10-05T05:01:56.688Z,99.90
2022-10-05T05:07:17.110Z,99.90
2022-10-05T05:12:31.561Z,99.90
2022-10-05T05:17:50.206Z,99.90
2022-10-05T05:23:05.839Z,99.90
2022-10-05T05:28:21.121Z,99.90
2022-10-05T05:33:30.127Z,99.90
2022-10-05T05:38:41.288Z,99.90
2022-10-05T05:43:59.169Z,99.90
2022-10-05T05:49:09.100Z,99.90
2022-10-05T05:54:27.494Z,99.90
2022-10-05T05:59:42.085Z,99.90
2022-10-05T06:04:50.656Z,99.90
2022-10-05T06:10:02.581Z,99.90
2022-10-05T06:15:23.070Z,99.90
2022-10-05T06:20:29.701Z,99.90
2022-10-05T06:25:45.733Z,99.90
2022-10-05T06:31:01.899Z,99.90
2022-10-05T06:36:23.606Z,99.90
2022-10-05T06:41:38.009Z,99.90
2022-10-05T06:46:54.934Z,99.90
2022-10-05T06:52:27.325Z,99.90
2022-10-05T06:57:55.711Z,99.90
2022-10-05T07:03:04.768Z,99.90
2022-10-05T07:08:14.680Z,99.90
2022-10-05T07:13:48.249Z,99.90
2022-10-05T07:19:05.677Z,99.90
2022-10-05T07:24:26.527Z,99.90
2022-10-05T07:29:39.437Z,99.90
2022-10-05T07:34:55.225Z,99.90
2022-10-05T07:40:09.923Z,99.90
2022-10-05T07:45:27.240Z,99.90
2022-10-05T07:50:36.074Z,99.90
2022-10-05T07:55:45.357Z,99.90
2022-10-05T08:01:01.761Z,99.90
2022-10-05T08:06:11.243Z,99.90
2022-10-05T08:11:18.282Z,99.90
2022-10-05T08:16:27.043Z,99.90
2022-10-05T08:21:35.062Z,99.90
2022-10-05T08:26:47.024Z,99.90
2022-10-05T08:31:58.212Z,99.90
2022-10-05T08:37:05.127Z,99.90
2022-10-05T08:42:39.506Z,99.80
2022-10-05T08:48:16.631Z,99.10
2022-10-05T08:53:36.848Z,99.90
2022-10-05T08:59:03.901Z,99.90
2022-10-05T09:04:44.053Z,99.50
2022-10-05T09:10:20.558Z,99.80
2022-10-05T09:15:44.171Z,96.50
2022-10-05T09:20:53.947Z,93.30
2022-10-05T09:26:00.806Z,91.80
2022-10-05T09:31:42.516Z,90.80
2022-10-05T09:37:41.823Z,92.70
2022-10-05T09:43:05.416Z,90.70
2022-10-05T09:48:44.183Z,89.50
2022-10-05T09:54:25.475Z,84.40
2022-10-05T10:00:09.707Z,83.60
2022-10-05T10:05:42.449Z,84.00
2022-10-05T10:11:02.688Z,81.00
2022-10-05T10:16:30.555Z,79.10
2022-10-05T10:22:11.468Z,76.00
2022-10-05T10:27:42.511Z,74.30
2022-10-05T10:33:23.877Z,75.70
2022-10-05T10:38:54.545Z,75.20
2022-10-05T10:44:35.465Z,74.20
2022-10-05T10:49:59.295Z,75.30
2022-10-05T10:55:28.727Z,74.30
2022-10-05T11:00:52.484Z,72.50
2022-10-05T11:06:34.635Z,73.70
2022-10-05T11:12:13.807Z,71.80
2022-10-05T11:17:39.472Z,81.20
2022-10-05T11:22:57.246Z,77.10
2022-10-05T11:28:37.221Z,77.80
2022-10-05T11:34:03.301Z,79.20
2022-10-05T11:39:28.872Z,79.80
2022-10-05T11:45:08.042Z,76.40
2022-10-05T11:50:21.497Z,73.20
2022-10-05T11:55:30.658Z,73.30
2022-10-05T12:00:41.552Z,74.20
2022-10-05T12:06:13.190Z,75.30
2022-10-05T12:11:38.953Z,73.60
2022-10-05T12:16:50.507Z,74.80
2022-10-05T12:22:03.814Z,76.10
2022-10-05T12:27:16.256Z,79.00
2022-10-05T12:32:23.703Z,79.30
2022-10-05T12:37:43.038Z,79.10
2022-10-05T12:43:00.512Z,79.60
2022-10-05T12:48:30.221Z,80.20
2022-10-05T12:53:53.116Z,81.80
2022-10-05T12:59:05.425Z,81.20
2022-10-05T13:04:32.513Z,79.10
2022-10-05T13:09:43.442Z,79.90
2022-10-05T13:14:57.378Z,80.10
2022-10-05T13:20:09.832Z,80.50
2022-10-05T13:25:30.809Z,80.10
2022-10-05T13:30:36.779Z,80.60
2022-10-05T13:35:46.090Z,81.90
2022-10-05T13:40:57.946Z,81.80
2022-10-05T13:46:08.261Z,80.50
2022-10-05T13:51:17.155Z,80.60
2022-10-05T13:56:26.333Z,81.80
2022-10-05T14:01:41.767Z,80.10
2022-10-05T14:06:46.140Z,82.10
2022-10-05T14:11:51.184Z,81.60
2022-10-05T14:16:58.522Z,81.80
2022-10-05T14:22:04.492Z,83.70
2022-10-05T14:27:21.530Z,88.00
2022-10-05T14:32:28.093Z,86.20
2022-10-05T14:37:43.524Z,83.80
2022-10-05T14:42:47.563Z,83.00
2022-10-05T14:47:56.298Z,84.60
2022-10-05T14:53:16.712Z,86.80
2022-10-05T15:04:07.804Z,85.80
2022-10-05T15:09:28.706Z,86.20
2022-10-05T15:14:34.935Z,88.70
2022-10-05T15:19:50.985Z,90.20
2022-10-05T15:25:09.995Z,90.30
2022-10-05T15:30:17.965Z,91.50
2022-10-05T15:35:43.599Z,94.40
2022-10-05T15:40:58.921Z,97.40
2022-10-05T15:46:10.394Z,99.90
2022-10-05T15:51:32.582Z,99.90
2022-10-05T15:56:43.842Z,99.90
2022-10-05T16:01:53.070Z,99.90
2022-10-05T16:07:18.238Z,99.90
2022-10-05T16:12:34.850Z,99.90
2022-10-05T16:17:55.306Z,99.90
2022-10-05T16:23:09.240Z,99.90
2022-10-05T16:28:31.587Z,99.90
2022-10-05T16:33:54.631Z,99.90
2022-10-05T16:39:04.811Z,99.90
2022-10-05T16:44:17.093Z,99.90
2022-10-05T16:49:30.162Z,99.90
2022-10-05T16:54:42.182Z,99.90
2022-10-05T17:00:16.220Z,99.90
2022-10-05T17:05:34.827Z,99.90
2022-10-05T17:10:49.689Z,99.90
2022-10-05T17:16:04.442Z,99.90
2022-10-05T17:21:16.554Z,99.90
2022-10-05T17:26:54.857Z,99.90
2022-10-05T17:32:09.406Z,99.90
2022-10-05T17:37:35.965Z,99.90
2022-10-05T17:43:02.147Z,99.90
2022-10-05T17:48:06.953Z,99.90
2022-10-05T17:53:39.516Z,99.90
2022-10-05T17:59:06.872Z,99.90
2022-10-05T18:04:42.242Z,99.90
2022-10-05T18:09:57.050Z,99.90
2022-10-05T18:15:04.122Z,99.90
2022-10-05T18:20:30.142Z,99.90
2022-10-05T18:25:39.056Z,99.90
2022-10-05T18:31:00.266Z,99.90
2022-10-05T18:36:22.172Z,99.90
2022-10-05T18:41:34.867Z,99.90
2022-10-05T18:46:48.001Z,99.90
2022-10-05T18:51:58.875Z,99.90
2022-10-05T18:57:26.139Z,99.90
2022-10-05T19:02:38.437Z,99.90
2022-10-05T19:07:48.433Z,99.90
2022-10-05T19:13:03.466Z,99.90
2022-10-05T19:18:48.904Z,99.90
2022-10-05T19:24:17.854Z,99.90
2022-10-05T19:29:36.112Z,99.90
2022-10-05T19:34:55.037Z,99.90
2022-10-05T19:40:08.816Z,99.90
2022-10-05T19:45:22.848Z,99.90
2022-10-05T19:50:30.421Z,99.90
2022-10-05T19:55:36.783Z,99.90
2022-10-05T20:00:40.072Z,99.90
2022-10-05T20:05:45.061Z,99.90
2022-10-05T20:11:06.177Z,99.90
2022-10-05T20:16:46.352Z,99.90
2022-10-05T20:21:52.497Z,99.90
2022-10-05T20:27:05.130Z,99.90
2022-10-05T20:32:12.324Z,99.90
2022-10-05T20:37:18.618Z,99.90
2022-10-05T20:42:23.044Z,99.90
2022-10-05T20:47:26.890Z,99.90
2022-10-05T20:52:31.726Z,99.90
2022-10-05T20:57:35.228Z,99.90
2022-10-05T21:02:39.955Z,99.90
2022-10-05T21:07:44.665Z,99.90
2022-10-05T21:12:48.003Z,99.90
2022-10-05T21:17:51.355Z,99.90
2022-10-05T21:22:55.977Z,99.90
2022-10-05T21:27:59.324Z,99.90
2022-10-05T21:33:02.583Z,99.90
2022-10-05T21:38:07.175Z,99.90
2022-10-05T21:43:10.719Z,99.90
2022-10-05T21:48:16.208Z,99.90
2022-10-05T21:53:24.042Z,99.90
2022-10-05T21:58:29.382Z,99.90
2022-10-05T22:03:33.231Z,99.90
2022-10-05T22:08:38.349Z,99.90
2022-10-05T22:13:44.107Z,99.90
2022-10-05T22:18:47.554Z,99.90
2022-10-05T22:23:52.359Z,99.90
2022-10-05T22:28:56.901Z,99.90
2022-10-05T22:34:00.185Z,99.90
2022-10-05T22:39:05.063Z,99.90
2022-10-05T22:44:09.025Z,99.90
2022-10-05T22:49:12.279Z,99.90
2022-10-05T22:54:17.034Z,99.90
2022-10-05T22:59:20.452Z,99.90
2022-10-05T23:04:23.838Z,99.90
2022-10-05T23:09:28.712Z,99.90
2022-10-05T23:14:33.298Z,99.90
2022-10-05T23:19:36.565Z,99.90
2022-10-05T23:24:41.170Z,99.90
2022-10-05T23:29:44.600Z,99.90
2022-10-05T23:34:47.898Z,99.90
2022-10-05T23:39:52.507Z,99.90
2022-10-05T23:44:55.742Z,99.90
2022-10-05T23:49:59.182Z,99.90
2022-10-05T23:55:04.149Z,99.90
